Time;durP1;ratioP1;P1;durP2;ratioP2;P2;SDS_P1;SDS_P2;PMS_P1;PMS_P2;Temp;Humidity;BMP_temperature;BMP_pressure;BME280_temperature;BME280_humidity;BME280_pressure;Samples;Min_cycle;Max_cycle;Signal;HPM_P1;HPM_P2
2023/10/02 00:05:07;;;;;;;16.97;8.00;;;14.50;99.90;;;;;;5053105;28;20434;-73
2023/10/02 00:07:33;;;;;;;20.63;8.57;;;14.40;99.90;;;;;;5051876;28;20421;-73
2023/10/02 00:10:00;;;;;;;19.00;8.10;;;14.40;99.90;;;;;;5053491;28;20473;-73
2023/10/02 00:12:28;;;;;;;17.10;7.70;;;14.50;99.90;;;;;;5053327;28;20411;-73
2023/10/02 00:14:55;;;;;;;22.83;7.77;;;14.40;99.90;;;;;;5051808;28;20448;-73
2023/10/02 00:17:23;;;;;;;16.43;8.00;;;14.40;99.90;;;;;;5053227;28;20514;-73
2023/10/02 00:19:57;;;;;;;21.93;8.00;;;14.40;99.90;;;;;;5053143;28;20419;-73
2023/10/02 00:22:38;;;;;;;19.40;7.80;;;14.40;99.90;;;;;;5051923;28;20423;-73
2023/10/02 00:25:07;;;;;;;17.60;8.20;;;14.40;99.90;;;;;;5053009;28;20439;-72
2023/10/02 00:27:36;;;;;;;18.87;8.60;;;14.40;99.90;;;;;;5053057;28;20515;-74
2023/10/02 00:30:07;;;;;;;15.90;8.13;;;14.40;99.90;;;;;;5052843;28;20573;-72
2023/10/02 00:32:34;;;;;;;22.33;8.43;;;14.40;99.90;;;;;;5051721;28;20434;-74
2023/10/02 00:35:01;;;;;;;22.37;8.87;;;14.40;99.90;;;;;;5052763;28;20435;-73
2023/10/02 00:37:44;;;;;;;14.73;7.40;;;14.40;99.90;;;;;;5052808;28;20822;-73
2023/10/02 00:40:39;;;;;;;15.37;7.33;;;14.40;99.90;;;;;;5051710;28;20449;-73
2023/10/02 00:45:50;;;;;;;17.80;8.30;;;14.40;99.90;;;;;;5052895;28;20483;-73
2023/10/02 00:48:26;;;;;;;17.37;8.03;;;14.50;99.90;;;;;;5052540;28;20800;-73
2023/10/02 00:50:54;;;;;;;19.50;9.10;;;14.50;99.90;;;;;;5052595;28;20417;-73
2023/10/02 00:53:37;;;;;;;16.57;7.27;;;14.40;99.90;;;;;;5052439;28;20422;-74
2023/10/02 00:56:20;;;;;;;20.27;8.97;;;14.40;99.90;;;;;;5052481;28;20465;-73
2023/10/02 00:58:55;;;;;;;16.00;7.63;;;14.40;99.90;;;;;;5051104;28;20452;-73
2023/10/02 01:01:27;;;;;;;16.20;8.17;;;14.30;99.90;;;;;;5052467;28;20419;-73
2023/10/02 01:04:09;;;;;;;18.23;9.43;;;14.30;99.90;;;;;;5052437;28;20416;-73
2023/10/02 01:06:54;;;;;;;17.20;8.03;;;14.30;99.90;;;;;;5052273;28;20414;-73
2023/10/02 01:09:25;;;;;;;16.60;8.20;;;14.30;99.90;;;;;;5052143;28;21018;-73
2023/10/02 01:11:51;;;;;;;19.30;8.90;;;14.30;99.90;;;;;;5051004;28;20449;-74
2023/10/02 01:14:40;;;;;;;15.87;7.50;;;14.20;99.90;;;;;;5052123;28;20535;-74
2023/10/02 01:17:06;;;;;;;22.23;8.77;;;14.20;99.90;;;;;;5051349;28;20451;-73
2023/10/02 01:19:52;;;;;;;20.77;8.10;;;14.10;99.90;;;;;;5051823;28;20926;-73
2023/10/02 01:22:27;;;;;;;18.00;8.30;;;14.00;99.90;;;;;;5052109;28;20418;-73
2023/10/02 01:25:13;;;;;;;16.90;8.77;;;14.00;99.90;;;;;;5051824;28;20436;-73
2023/10/02 01:27:40;;;;;;;16.40;7.77;;;14.00;99.90;;;;;;5051888;28;20419;-73
2023/10/02 01:30:16;;;;;;;16.87;8.00;;;14.00;99.90;;;;;;5051729;28;20459;-73
2023/10/02 01:35:38;;;;;;;22.00;8.67;;;13.90;99.90;;;;;;5051691;28;20457;-73
2023/10/02 01:38:12;;;;;;;16.87;8.43;;;13.90;99.90;;;;;;5034234;28;20434;-73
2023/10/02 01:40:48;;;;;;;21.67;9.33;;;13.90;99.90;;;;;;5051612;28;20415;-73
2023/10/02 01:43:15;;;;;;;16.13;8.10;;;13.90;99.90;;;;;;5050265;28;20422;-73
2023/10/02 01:45:45;;;;;;;17.10;8.17;;;13.80;99.90;;;;;;5052013;28;20426;-73
2023/10/02 01:51:21;;;;;;;21.63;9.03;;;13.70;99.90;;;;;;5051808;28;20815;-73
2023/10/02 01:53:58;;;;;;;20.33;9.60;;;13.70;99.90;;;;;;5050201;28;20966;-73
2023/10/02 01:56:29;;;;;;;21.97;9.17;;;13.70;99.90;;;;;;5051214;28;21056;-73
2023/10/02 01:59:09;;;;;;;17.30;9.20;;;13.70;99.90;;;;;;5051438;28;20409;-73
2023/10/02 02:01:55;;;;;;;22.77;9.53;;;13.60;99.90;;;;;;5050335;28;20456;-73
2023/10/02 02:04:28;;;;;;;21.27;9.37;;;13.60;99.90;;;;;;5051801;28;20430;-73
2023/10/02 02:06:56;;;;;;;15.57;7.67;;;13.50;99.90;;;;;;5051342;28;20787;-73
2023/10/02 02:09:36;;;;;;;18.00;8.27;;;13.50;99.90;;;;;;5051199;28;20560;-73
2023/10/02 02:12:14;;;;;;;19.03;8.10;;;13.60;99.90;;;;;;5051649;28;20473;-73
2023/10/02 02:14:50;;;;;;;22.83;8.83;;;13.50;99.90;;;;;;5051215;28;20429;-73
2023/10/02 02:17:18;;;;;;;16.40;8.00;;;13.60;99.90;;;;;;5050023;28;20418;-73
2023/10/02 02:19:50;;;;;;;21.23;8.10;;;13.60;99.90;;;;;;5049922;28;20444;-73
2023/10/02 02:22:31;;;;;;;17.93;8.50;;;13.60;99.90;;;;;;5051135;28;20461;-73
2023/10/02 02:24:58;;;;;;;20.37;8.60;;;13.70;99.90;;;;;;5051142;28;20445;-73
2023/10/02 02:27:24;;;;;;;21.03;9.90;;;13.80;99.90;;;;;;5049765;28;20421;-73
2023/10/02 02:29:54;;;;;;;24.93;10.13;;;13.90;99.90;;;;;;5053559;28;20484;-73
2023/10/02 02:32:36;;;;;;;22.60;9.60;;;13.90;99.90;;;;;;5053886;28;20422;-73
2023/10/02 02:35:03;;;;;;;18.13;8.33;;;13.80;99.90;;;;;;5055096;28;20435;-73
2023/10/02 02:37:28;;;;;;;34.80;9.73;;;13.90;99.90;;;;;;5037537;28;20853;-73
2023/10/02 02:40:21;;;;;;;21.63;9.40;;;13.90;99.90;;;;;;5055077;28;20520;-73
2023/10/02 02:42:41;;;;;;;19.63;9.13;;;14.00;99.90;;;;;;5053828;28;20615;-73
2023/10/02 02:45:24;;;;;;;19.73;8.73;;;14.10;99.90;;;;;;5054887;28;20514;-73
2023/10/02 02:47:54;;;;;;;23.33;11.30;;;14.20;99.90;;;;;;5055018;28;20442;-73
2023/10/02 02:50:28;;;;;;;17.90;8.80;;;14.30;99.90;;;;;;5054755;28;20462;-73
2023/10/02 02:55:38;;;;;;;21.90;10.00;;;14.30;99.90;;;;;;5054890;28;20509;-73
2023/10/02 02:58:06;;;;;;;21.07;8.57;;;14.30;99.90;;;;;;5054934;28;20501;-73
2023/10/02 03:00:35;;;;;;;21.20;9.03;;;14.20;99.90;;;;;;5053459;28;20198;-73
2023/10/02 03:03:02;;;;;;;22.03;8.53;;;14.10;99.90;;;;;;5054619;28;20417;-73
2023/10/02 03:05:43;;;;;;;15.77;8.77;;;14.00;99.90;;;;;;5054530;28;20537;-73
2023/10/02 03:08:11;;;;;;;20.90;9.40;;;13.90;99.90;;;;;;5054591;28;20424;-73
2023/10/02 03:10:39;;;;;;;16.40;8.70;;;13.80;99.90;;;;;;5053150;28;20552;-73
2023/10/02 03:13:08;;;;;;;17.80;8.03;;;13.70;99.90;;;;;;5053294;28;20497;-73
2023/10/02 03:15:46;;;;;;;17.93;8.67;;;13.70;99.90;;;;;;5054333;28;20438;-73
2023/10/02 03:18:30;;;;;;;25.23;10.10;;;13.60;99.90;;;;;;5054448;28;20422;-73
2023/10/02 03:21:47;;;;;;;18.17;8.63;;;13.60;99.90;;;;;;5054389;28;20418;-73
2023/10/02 03:23:46;;;;;;;20.87;8.47;;;13.60;99.90;;;;;;5056928;28;20474;-73
2023/10/02 03:26:26;;;;;;;25.43;10.13;;;13.50;99.90;;;;;;5054124;28;20441;-73
2023/10/02 03:29:02;;;;;;;26.50;9.73;;;13.50;99.90;;;;;;5054105;28;20203;-73
2023/10/02 03:31:37;;;;;;;21.33;9.90;;;13.40;99.90;;;;;;5053075;28;20419;-73
2023/10/02 03:36:54;;;;;;;17.87;8.50;;;13.40;99.90;;;;;;5054241;28;20417;-73
2023/10/02 03:39:51;;;;;;;21.90;9.47;;;13.20;99.90;;;;;;5053930;28;20803;-73
2023/10/02 03:42:12;;;;;;;18.53;9.80;;;13.20;99.90;;;;;;5052925;28;20484;-73
2023/10/02 03:44:39;;;;;;;21.43;9.57;;;13.10;99.90;;;;;;5053818;28;20450;-73
2023/10/02 03:47:04;;;;;;;16.43;7.97;;;13.10;99.90;;;;;;5052661;28;20460;-73
2023/10/02 03:49:33;;;;;;;16.67;8.60;;;13.10;99.90;;;;;;5052473;28;20466;-73
2023/10/02 03:51:58;;;;;;;22.67;8.40;;;13.00;99.90;;;;;;5052544;28;20693;-73
2023/10/02 03:54:26;;;;;;;18.10;8.43;;;12.90;99.90;;;;;;5053610;28;20438;-73
2023/10/02 03:56:56;;;;;;;19.13;8.43;;;12.90;99.90;;;;;;5053470;28;20642;-73
2023/10/02 03:59:27;;;;;;;17.87;8.30;;;12.80;99.90;;;;;;5053564;28;20544;-73
2023/10/02 04:01:55;;;;;;;20.83;9.10;;;12.80;99.90;;;;;;5053553;28;20449;-73
2023/10/02 04:04:24;;;;;;;19.07;8.43;;;12.70;99.90;;;;;;5053423;28;20971;-73
2023/10/02 04:06:53;;;;;;;19.17;9.13;;;12.70;99.90;;;;;;5052341;28;20426;-73
2023/10/02 04:11:48;;;;;;;19.73;8.70;;;12.60;99.90;;;;;;5052057;28;20782;-73
2023/10/02 04:14:17;;;;;;;21.70;9.07;;;12.50;99.90;;;;;;5053231;28;20406;-73
2023/10/02 04:16:59;;;;;;;18.50;8.80;;;12.40;99.90;;;;;;5053221;28;20415;-73
2023/10/02 04:19:26;;;;;;;20.43;9.33;;;12.40;99.90;;;;;;5051902;28;20425;-73
2023/10/02 04:21:53;;;;;;;18.07;9.07;;;12.40;99.90;;;;;;5053155;28;20442;-73
2023/10/02 04:24:23;;;;;;;22.77;10.13;;;12.30;99.90;;;;;;5053186;28;20410;-73
2023/10/02 04:26:54;;;;;;;18.23;8.80;;;12.20;99.90;;;;;;5053049;28;20858;-74
2023/10/02 04:29:26;;;;;;;20.43;9.00;;;12.20;99.90;;;;;;5051627;28;20469;-73
2023/10/02 04:32:12;;;;;;;26.37;8.67;;;12.30;99.90;;;;;;5052912;28;20410;-73
2023/10/02 04:34:46;;;;;;;23.70;9.97;;;12.30;99.90;;;;;;5051493;28;20492;-73
2023/10/02 04:37:19;;;;;;;20.93;8.33;;;12.20;99.90;;;;;;5051691;28;20766;-73
2023/10/02 04:42:57;;;;;;;16.90;8.50;;;12.10;99.90;;;;;;5052952;28;20422;-73
2023/10/02 04:45:21;;;;;;;23.63;9.77;;;12.00;99.90;;;;;;5052888;28;20450;-73
2023/10/02 04:47:54;;;;;;;21.00;9.10;;;11.90;99.90;;;;;;5052677;28;20484;-73
2023/10/02 04:53:04;;;;;;;15.77;8.47;;;11.90;99.90;;;;;;5051258;28;20457;-72
2023/10/02 04:55:43;;;;;;;23.70;10.57;;;11.80;99.90;;;;;;5052457;28;20437;-72
2023/10/02 04:58:19;;;;;;;16.20;7.93;;;11.90;99.90;;;;;;5052603;28;20507;-73
2023/10/02 05:03:55;;;;;;;16.30;8.33;;;12.00;99.90;;;;;;5052355;28;20783;-72
2023/10/02 05:11:57;;;;;;;20.83;9.50;;;11.80;99.90;;;;;;5052433;28;20414;-73
2023/10/02 05:14:28;;;;;;;15.60;9.20;;;11.90;99.90;;;;;;5052167;28;20423;-72
2023/10/02 05:17:16;;;;;;;17.53;9.00;;;11.90;99.90;;;;;;5052684;28;20414;-73
2023/10/02 05:22:37;;;;;;;23.67;9.07;;;11.90;99.90;;;;;;5055825;28;20426;-72
2023/10/02 05:25:04;;;;;;;17.50;9.57;;;12.00;99.90;;;;;;5051974;28;20452;-73
2023/10/02 05:27:35;;;;;;;23.20;9.77;;;11.90;99.90;;;;;;5051954;28;20233;-73
2023/10/02 05:30:21;;;;;;;18.37;8.93;;;11.90;99.90;;;;;;5051880;28;20460;-72
2023/10/02 05:32:47;;;;;;;17.63;7.87;;;11.80;99.90;;;;;;5050590;28;20425;-72
2023/10/02 05:37:40;;;;;;;22.40;9.63;;;11.60;99.90;;;;;;5050653;28;20179;-74
2023/10/02 05:45:39;;;;;;;23.00;10.43;;;11.80;99.90;;;;;;5051507;28;20439;-73
2023/10/02 05:48:14;;;;;;;22.93;9.40;;;11.80;99.90;;;;;;5051707;28;20455;-73
2023/10/02 05:50:47;;;;;;;18.73;9.40;;;11.90;99.90;;;;;;5050305;28;20456;-74
2023/10/02 05:53:14;;;;;;;22.10;9.70;;;12.00;99.90;;;;;;5050241;28;20426;-73
2023/10/02 05:56:05;;;;;;;23.40;10.03;;;12.10;99.90;;;;;;5051350;28;20432;-73
2023/10/02 05:58:39;;;;;;;21.60;9.40;;;12.20;99.90;;;;;;5050525;28;20433;-73
2023/10/02 06:01:18;;;;;;;19.47;9.23;;;12.30;99.90;;;;;;5051456;28;20436;-73
2023/10/02 06:03:56;;;;;;;18.50;9.30;;;12.30;99.90;;;;;;5050883;28;20759;-73
2023/10/02 06:06:23;;;;;;;23.00;8.93;;;12.40;99.90;;;;;;5051332;28;20846;-73
2023/10/02 06:08:55;;;;;;;20.50;9.03;;;12.40;99.90;;;;;;5051311;28;20454;-73
2023/10/02 06:11:34;;;;;;;21.90;9.60;;;12.40;99.90;;;;;;5050006;28;20932;-74
2023/10/02 06:14:11;;;;;;;15.00;8.10;;;12.50;99.90;;;;;;5050226;28;20775;-73
2023/10/02 06:16:41;;;;;;;21.70;9.30;;;12.80;99.90;;;;;;5051301;28;20414;-73
2023/10/02 06:19:13;;;;;;;22.50;9.40;;;13.00;99.90;;;;;;5051280;28;20418;-73
2023/10/02 06:21:45;;;;;;;23.60;10.73;;;13.10;99.90;;;;;;5050049;28;20409;-73
2023/10/02 06:24:16;;;;;;;24.87;9.83;;;13.20;99.90;;;;;;5051149;28;20414;-73
2023/10/02 06:26:57;;;;;;;26.90;10.20;;;13.20;99.90;;;;;;5051210;28;20413;-73
2023/10/02 06:29:32;;;;;;;19.47;8.90;;;13.30;99.90;;;;;;5050988;28;20974;-74
2023/10/02 06:31:58;;;;;;;23.53;10.67;;;13.40;99.90;;;;;;5049891;28;20503;-74
2023/10/02 06:34:37;;;;;;;26.60;10.00;;;13.50;99.90;;;;;;5051058;28;20429;-73
2023/10/02 06:37:13;;;;;;;19.90;8.87;;;13.60;99.90;;;;;;5051112;28;21015;-73
2023/10/02 06:39:45;;;;;;;27.47;10.70;;;13.80;99.90;;;;;;5051090;28;20413;-73
2023/10/02 06:42:17;;;;;;;24.73;10.03;;;13.90;99.90;;;;;;5051076;28;20426;-73
2023/10/02 06:44:55;;;;;;;21.60;10.03;;;14.00;99.90;;;;;;5049572;28;20991;-73
2023/10/02 06:47:28;;;;;;;20.90;8.70;;;14.00;99.90;;;;;;5050006;28;20468;-73
2023/10/02 06:50:02;;;;;;;24.27;10.10;;;14.10;99.90;;;;;;5049754;28;20451;-73
2023/10/02 06:52:32;;;;;;;21.10;9.67;;;14.10;99.90;;;;;;5051247;28;20469;-73
2023/10/02 06:55:00;;;;;;;18.57;8.93;;;14.10;99.90;;;;;;5049783;28;20442;-73
2023/10/02 06:57:26;;;;;;;25.97;10.20;;;14.10;99.90;;;;;;5050943;28;20527;-73
2023/10/02 06:59:52;;;;;;;22.50;10.10;;;14.10;99.90;;;;;;5050883;28;20474;-73
2023/10/02 07:02:19;;;;;;;20.20;11.00;;;14.10;99.90;;;;;;5050886;28;20632;-74
2023/10/02 07:04:47;;;;;;;19.83;10.00;;;14.20;99.90;;;;;;5050701;28;20841;-73
2023/10/02 07:07:14;;;;;;;20.73;9.70;;;14.30;99.90;;;;;;5050739;28;20415;-73
2023/10/02 07:09:40;;;;;;;25.50;10.80;;;14.50;99.90;;;;;;5050712;28;20469;-73
2023/10/02 07:12:08;;;;;;;22.10;9.60;;;14.60;99.90;;;;;;5049713;28;20422;-74
2023/10/02 07:14:38;;;;;;;22.57;10.90;;;14.70;99.90;;;;;;5049623;28;20206;-73
2023/10/02 07:17:16;;;;;;;22.70;10.10;;;14.70;99.90;;;;;;5054427;28;20513;-74
2023/10/02 07:19:50;;;;;;;18.07;8.60;;;14.70;99.90;;;;;;5054486;28;20785;-73
2023/10/02 07:22:23;;;;;;;21.80;10.73;;;14.80;99.90;;;;;;5054466;28;20959;-73
2023/10/02 07:24:52;;;;;;;19.10;10.40;;;14.90;99.90;;;;;;5052993;28;20451;-73
2023/10/02 07:27:28;;;;;;;20.63;10.10;;;14.90;99.90;;;;;;5054495;28;20426;-74
2023/10/02 07:29:58;;;;;;;20.27;10.47;;;15.00;99.90;;;;;;5054190;28;20445;-74
2023/10/02 07:32:31;;;;;;;22.73;11.37;;;15.20;99.90;;;;;;5052824;28;20719;-74
2023/10/02 07:35:09;;;;;;;21.77;9.90;;;15.30;99.90;;;;;;5054277;28;20435;-73
2023/10/02 07:37:35;;;;;;;22.33;9.60;;;15.40;99.90;;;;;;5054127;28;20916;-74
2023/10/02 07:40:02;;;;;;;24.53;9.23;;;15.50;99.90;;;;;;5054004;28;20428;-74
2023/10/02 07:42:29;;;;;;;20.33;9.30;;;15.60;99.90;;;;;;5054156;28;20426;-73
2023/10/02 07:45:12;;;;;;;26.07;10.60;;;15.70;99.90;;;;;;5053900;28;20439;-73
2023/10/02 07:48:28;;;;;;;19.70;9.30;;;15.80;99.90;;;;;;5052580;28;20420;-74
2023/10/02 07:50:38;;;;;;;24.77;10.40;;;16.00;99.90;;;;;;5056389;28;20483;-74
2023/10/02 07:53:06;;;;;;;22.23;10.33;;;16.10;99.90;;;;;;5053787;28;20422;-73
2023/10/02 07:55:42;;;;;;;23.53;10.77;;;16.30;99.90;;;;;;5052225;28;20901;-74
2023/10/02 07:58:09;;;;;;;20.87;9.70;;;16.40;99.90;;;;;;5053879;28;20424;-73
2023/10/02 08:00:40;;;;;;;23.93;11.17;;;16.50;99.90;;;;;;5053740;28;20433;-74
2023/10/02 08:05:58;;;;;;;22.20;9.80;;;16.80;99.90;;;;;;5052782;28;20431;-74
2023/10/02 08:08:34;;;;;;;19.77;9.70;;;16.90;99.90;;;;;;5052184;28;20455;-74
2023/10/02 08:11:10;;;;;;;22.37;10.60;;;17.00;99.90;;;;;;5053616;28;20421;-74
2023/10/02 08:13:36;;;;;;;25.40;10.60;;;17.20;99.90;;;;;;5053446;28;20888;-74
2023/10/02 08:16:20;;;;;;;22.20;10.43;;;17.30;99.90;;;;;;5053348;28;20428;-73
2023/10/02 08:18:58;;;;;;;20.30;10.13;;;17.40;99.90;;;;;;5052354;28;20428;-74
2023/10/02 08:21:46;;;;;;;19.53;10.30;;;17.40;99.90;;;;;;5051930;28;20409;-74
2023/10/02 08:24:13;;;;;;;19.53;10.13;;;17.50;99.90;;;;;;5052127;28;20913;-74
2023/10/02 08:26:40;;;;;;;19.50;9.50;;;17.70;99.90;;;;;;5051195;28;20413;-74
2023/10/02 08:29:07;;;;;;;22.10;10.27;;;17.80;99.90;;;;;;5053105;28;20455;-74
2023/10/02 08:31:34;;;;;;;22.27;9.50;;;18.00;99.90;;;;;;5053128;28;20407;-74
2023/10/02 08:34:05;;;;;;;28.47;9.93;;;18.10;99.90;;;;;;5053039;28;20934;-75
2023/10/02 08:36:32;;;;;;;20.53;9.70;;;18.20;99.90;;;;;;5052982;28;20415;-74
2023/10/02 08:38:59;;;;;;;23.83;11.13;;;18.40;99.90;;;;;;5051711;28;20462;-74
2023/10/02 08:41:28;;;;;;;21.67;10.10;;;18.50;99.90;;;;;;5052974;28;20422;-74
2023/10/02 08:43:54;;;;;;;24.90;11.47;;;18.60;99.90;;;;;;5051366;28;20426;-74
2023/10/02 08:46:22;;;;;;;23.10;10.40;;;18.80;99.90;;;;;;5051397;28;20441;-74
2023/10/02 08:48:55;;;;;;;22.60;9.93;;;19.00;99.90;;;;;;5051297;28;20216;-74
2023/10/02 08:51:34;;;;;;;24.10;10.77;;;19.10;99.90;;;;;;5052689;28;20407;-73
2023/10/02 08:54:05;;;;;;;24.60;11.20;;;19.30;99.90;;;;;;5051576;28;20420;-73
2023/10/02 08:56:43;;;;;;;22.07;9.50;;;19.50;99.90;;;;;;5052499;28;20593;-73
2023/10/02 08:59:18;;;;;;;20.90;10.47;;;19.70;99.90;;;;;;5052569;28;20423;-73
2023/10/02 09:01:47;;;;;;;19.67;9.70;;;20.00;99.90;;;;;;5052970;28;20445;-73
2023/10/02 09:06:58;;;;;;;24.00;11.63;;;20.50;99.90;;;;;;5052592;28;20416;-73
2023/10/02 09:11:53;;;;;;;24.00;10.30;;;21.30;99.90;;;;;;5052339;28;20454;-74
2023/10/02 09:16:47;;;;;;;26.07;11.60;;;22.40;99.90;;;;;;5052165;28;20465;-74
2023/10/02 09:19:31;;;;;;;19.60;9.97;;;22.80;99.90;;;;;;5052125;28;20462;-74
2023/10/02 09:22:06;;;;;;;24.20;11.33;;;23.30;99.90;;;;;;5052142;28;20819;-74
2023/10/02 09:24:36;;;;;;;26.43;11.67;;;23.80;99.90;;;;;;5052518;28;20499;-74
2023/10/02 09:27:25;;;;;;;20.60;11.07;;;24.20;99.90;;;;;;5051976;28;20416;-74
2023/10/02 09:32:49;;;;;;;22.27;11.60;;;24.90;98.70;;;;;;5052204;28;20424;-74
2023/10/02 09:35:32;;;;;;;19.80;10.60;;;25.20;96.40;;;;;;5051836;28;20424;-74
2023/10/02 09:38:10;;;;;;;24.60;11.50;;;25.60;95.00;;;;;;5051471;28;20404;-74
2023/10/02 09:43:22;;;;;;;25.20;11.10;;;26.20;93.50;;;;;;5051747;28;20437;-74
2023/10/02 09:45:49;;;;;;;20.70;10.53;;;26.30;92.50;;;;;;5051577;28;20860;-74
2023/10/02 09:51:19;;;;;;;21.60;11.10;;;26.90;90.90;;;;;;5051598;28;20973;-74
2023/10/02 09:54:04;;;;;;;19.77;10.80;;;27.30;89.90;;;;;;5051573;28;20907;-74
2023/10/02 09:56:51;;;;;;;19.73;10.43;;;27.70;87.90;;;;;;5051453;28;20434;-74
2023/10/02 09:59:22;;;;;;;22.97;10.90;;;27.60;88.10;;;;;;5050505;28;20430;-74
2023/10/02 10:02:19;;;;;;;20.07;10.93;;;28.20;90.40;;;;;;5051887;28;20418;-74
2023/10/02 10:07:46;;;;;;;19.20;11.13;;;28.70;87.30;;;;;;5051533;28;20450;-75
2023/10/02 10:11:10;;;;;;;23.93;11.33;;;28.80;83.30;;;;;;5051236;28;20841;-75
2023/10/02 10:13:37;;;;;;;19.40;11.13;;;29.10;81.70;;;;;;5049988;28;20414;-75
2023/10/02 10:16:18;;;;;;;26.07;11.97;;;29.30;83.40;;;;;;5050057;28;20492;-75
2023/10/02 10:21:56;;;;;;;19.97;11.40;;;29.40;82.80;;;;;;5051718;28;20406;-74
2023/10/02 10:24:56;;;;;;;24.17;12.23;;;29.80;80.80;;;;;;5051172;28;21035;-75
2023/10/02 10:27:38;;;;;;;20.90;12.27;;;30.10;75.00;;;;;;5051186;28;20517;-74
2023/10/02 10:30:19;;;;;;;22.00;10.90;;;30.20;77.70;;;;;;5051269;28;20466;-73
2023/10/02 10:32:45;;;;;;;20.03;11.13;;;30.40;77.10;;;;;;5049846;28;20791;-74
2023/10/02 10:35:35;;;;;;;22.20;11.50;;;30.30;74.80;;;;;;5051162;28;20426;-74
2023/10/02 10:38:36;;;;;;;21.00;12.37;;;30.20;75.00;;;;;;5051061;28;20411;-74
2023/10/02 10:41:40;;;;;;;22.00;12.13;;;30.10;79.60;;;;;;5051201;28;20503;-75
2023/10/02 10:44:15;;;;;;;19.90;11.97;;;29.60;75.40;;;;;;5031894;28;20430;-75
2023/10/02 10:46:47;;;;;;;21.30;12.63;;;30.30;74.10;;;;;;5047214;28;20421;-75
2023/10/02 10:49:19;;;;;;;23.63;12.40;;;29.90;75.00;;;;;;5050995;28;20511;-74
2023/10/02 10:51:52;;;;;;;22.17;12.47;;;30.00;75.30;;;;;;5055008;28;20406;-75
2023/10/02 10:54:27;;;;;;;26.27;13.70;;;30.00;74.50;;;;;;5054897;28;20450;-75
2023/10/02 10:57:19;;;;;;;23.80;13.70;;;30.20;74.80;;;;;;5054745;28;20962;-75
2023/10/02 11:00:23;;;;;;;23.07;12.77;;;30.30;73.30;;;;;;5054888;28;20419;-75
2023/10/02 11:02:54;;;;;;;25.83;13.53;;;30.60;72.50;;;;;;5054710;28;20441;-74
2023/10/02 11:05:23;;;;;;;22.23;12.70;;;30.10;72.90;;;;;;5054698;28;20426;-75
2023/10/02 11:07:49;;;;;;;30.03;14.20;;;30.40;73.60;;;;;;5054666;28;20426;-74
2023/10/02 11:10:19;;;;;;;22.67;12.57;;;30.00;77.20;;;;;;5053418;28;20493;-74
2023/10/02 11:12:56;;;;;;;22.87;12.60;;;30.10;80.80;;;;;;5054718;28;20469;-74
2023/10/02 11:18:20;;;;;;;25.47;13.50;;;30.50;77.00;;;;;;5053876;28;20423;-74
2023/10/02 11:20:54;;;;;;;21.00;13.00;;;30.10;78.10;;;;;;5054460;28;20499;-74
2023/10/02 11:23:40;;;;;;;24.07;12.77;;;30.10;77.20;;;;;;5053310;28;20429;-74
2023/10/02 11:26:13;;;;;;;25.70;14.60;;;29.70;76.80;;;;;;5054271;28;20425;-73
2023/10/02 11:28:42;;;;;;;25.67;13.83;;;29.70;79.10;;;;;;5054371;28;20791;-73
2023/10/02 11:32:18;;;;;;;27.47;13.10;;;29.90;78.90;;;;;;5054422;28;20479;-74
2023/10/02 11:34:20;;;;;;;26.57;13.13;;;29.80;78.00;;;;;;5051875;28;20429;-74
2023/10/02 11:36:52;;;;;;;24.30;13.70;;;29.70;76.00;;;;;;5036730;28;20449;-74
2023/10/02 11:39:19;;;;;;;27.20;13.60;;;29.40;77.50;;;;;;5052915;28;20924;-75
2023/10/02 11:41:46;;;;;;;23.27;14.00;;;29.50;78.20;;;;;;5054158;28;20454;-76
2023/10/02 11:44:14;;;;;;;26.53;15.43;;;29.10;78.70;;;;;;5053885;28;20419;-74
2023/10/02 11:46:40;;;;;;;32.33;15.20;;;29.20;76.30;;;;;;5052623;28;20763;-74
2023/10/02 11:49:12;;;;;;;27.03;13.80;;;29.00;80.20;;;;;;5053753;28;20450;-73
2023/10/02 11:51:38;;;;;;;33.80;15.00;;;29.10;79.50;;;;;;5053986;28;20420;-74
2023/10/02 11:54:09;;;;;;;29.53;14.57;;;28.80;77.50;;;;;;5053785;28;20411;-74
2023/10/02 11:56:35;;;;;;;28.13;14.87;;;28.90;76.50;;;;;;5053726;28;20496;-75
2023/10/02 11:59:02;;;;;;;27.00;15.07;;;28.90;78.20;;;;;;5053709;28;20445;-75
2023/10/02 12:01:29;;;;;;;33.83;15.00;;;28.80;77.20;;;;;;5052611;28;20475;-75
2023/10/02 12:03:57;;;;;;;30.23;15.80;;;28.30;75.70;;;;;;5053564;28;20452;-74
2023/10/02 12:06:26;;;;;;;31.47;15.23;;;28.30;75.40;;;;;;5053479;28;20208;-74
2023/10/02 12:08:56;;;;;;;32.40;15.37;;;28.20;75.90;;;;;;5036214;28;20568;-74
2023/10/02 12:11:24;;;;;;;33.77;15.70;;;28.40;79.80;;;;;;5053858;28;20414;-74
2023/10/02 12:13:50;;;;;;;26.57;15.17;;;28.30;78.40;;;;;;5053533;28;20412;-74
2023/10/02 12:16:17;;;;;;;30.20;16.57;;;28.40;76.20;;;;;;5051924;28;20495;-74
2023/10/02 12:18:42;;;;;;;32.93;17.67;;;28.60;73.90;;;;;;5053351;28;20423;-74
2023/10/02 12:21:10;;;;;;;30.90;16.60;;;28.80;73.20;;;;;;5053350;28;20403;-74
2023/10/02 12:23:40;;;;;;;28.13;14.93;;;28.70;74.40;;;;;;5053334;28;20203;-74
2023/10/02 12:26:12;;;;;;;35.50;17.43;;;28.60;75.00;;;;;;5051937;28;20979;-74
2023/10/02 12:28:38;;;;;;;35.53;16.97;;;28.50;74.80;;;;;;5053566;28;20811;-74
2023/10/02 12:31:14;;;;;;;30.97;16.77;;;28.50;75.60;;;;;;5053145;28;20875;-74
2023/10/02 12:33:44;;;;;;;36.40;17.33;;;28.40;75.40;;;;;;5051900;28;20453;-75
2023/10/02 12:36:11;;;;;;;36.33;18.77;;;28.40;75.60;;;;;;5052900;28;20472;-74
2023/10/02 12:38:36;;;;;;;33.53;18.03;;;28.50;73.00;;;;;;5053053;28;20742;-75
2023/10/02 12:41:14;;;;;;;40.63;19.07;;;28.60;73.40;;;;;;5053026;28;20405;-75
2023/10/02 12:43:42;;;;;;;40.37;20.10;;;28.60;67.80;;;;;;5052897;28;20270;-74
2023/10/02 12:46:07;;;;;;;39.13;19.60;;;28.50;68.60;;;;;;5052736;28;20426;-74
2023/10/02 12:48:33;;;;;;;39.13;20.00;;;28.50;66.50;;;;;;5052720;28;20468;-74
2023/10/02 12:51:06;;;;;;;41.13;19.87;;;28.60;68.30;;;;;;5052648;28;20211;-74
2023/10/02 12:53:35;;;;;;;42.37;21.93;;;28.60;65.80;;;;;;5051409;28;20590;-74
2023/10/02 12:56:01;;;;;;;37.70;20.70;;;28.60;66.40;;;;;;5052373;28;20955;-74
2023/10/02 12:58:27;;;;;;;43.87;21.83;;;28.60;71.00;;;;;;5052578;28;20410;-73
2023/10/02 13:00:56;;;;;;;46.10;21.63;;;28.70;66.90;;;;;;5052519;28;20180;-75
2023/10/02 13:03:21;;;;;;;47.50;20.90;;;28.70;65.20;;;;;;5052481;28;21030;-74
2023/10/02 13:05:47;;;;;;;48.70;23.73;;;28.80;66.00;;;;;;5052401;28;20442;-74
2023/10/02 13:08:13;;;;;;;47.97;22.60;;;28.80;63.90;;;;;;5052501;28;20195;-75
2023/10/02 13:10:39;;;;;;;38.50;20.87;;;28.80;65.50;;;;;;5052211;28;20286;-74
2023/10/02 13:13:05;;;;;;;45.40;23.67;;;29.00;66.60;;;;;;5050953;28;20183;-74
2023/10/02 13:15:33;;;;;;;52.07;24.97;;;29.00;67.50;;;;;;5052122;28;20438;-74
2023/10/02 13:17:59;;;;;;;47.93;22.93;;;29.00;68.10;;;;;;5051030;28;20172;-74
2023/10/02 13:20:24;;;;;;;50.87;25.90;;;29.10;65.20;;;;;;5052216;28;20415;-73
2023/10/02 13:22:54;;;;;;;47.50;22.70;;;29.20;67.40;;;;;;5052121;28;20186;-75
2023/10/02 13:25:21;;;;;;;52.30;26.90;;;29.20;68.10;;;;;;5051966;28;20274;-75
2023/10/02 13:27:50;;;;;;;55.07;27.10;;;29.20;67.80;;;;;;5052263;28;20414;-75
2023/10/02 13:30:25;;;;;;;52.17;26.83;;;29.10;67.90;;;;;;5050500;28;20990;-74
2023/10/02 13:32:56;;;;;;;55.37;26.20;;;29.00;67.50;;;;;;5050554;28;20410;-74
2023/10/02 13:35:23;;;;;;;59.13;28.43;;;28.90;66.80;;;;;;5050469;28;20794;-74
2023/10/02 13:37:50;;;;;;;55.10;28.70;;;28.90;62.40;;;;;;5051747;28;20419;-75
2023/10/02 13:40:25;;;;;;;51.87;26.83;;;28.80;63.50;;;;;;5050453;28;20460;-74
2023/10/02 13:42:51;;;;;;;51.20;25.97;;;28.80;67.30;;;;;;5051961;28;20773;-74
2023/10/02 13:45:21;;;;;;;60.50;29.00;;;28.70;66.90;;;;;;5050369;28;20517;-74
2023/10/02 13:47:49;;;;;;;73.97;30.30;;;28.60;67.00;;;;;;5051691;28;20418;-74
2023/10/02 13:50:15;;;;;;;51.37;27.03;;;28.40;63.90;;;;;;5051509;28;20473;-74
2023/10/02 13:52:42;;;;;;;68.97;29.77;;;28.30;63.20;;;;;;5052102;28;20493;-74
2023/10/02 13:55:22;;;;;;;56.77;29.00;;;28.30;63.30;;;;;;5033722;28;20438;-74
2023/10/02 13:57:52;;;;;;;60.23;30.00;;;28.20;61.80;;;;;;5051510;28;20434;-75
2023/10/02 14:00:20;;;;;;;55.53;28.70;;;28.10;66.40;;;;;;5051458;28;20876;-74
2023/10/02 14:02:47;;;;;;;72.33;32.50;;;28.10;66.80;;;;;;5051377;28;20425;-74
2023/10/02 14:05:18;;;;;;;76.37;33.50;;;28.10;66.40;;;;;;5051255;28;20441;-74
2023/10/02 14:07:45;;;;;;;70.73;32.47;;;28.00;66.70;;;;;;5051394;28;20934;-75
2023/10/02 14:10:15;;;;;;;64.90;32.37;;;27.90;67.50;;;;;;5033319;28;20497;-74
2023/10/02 14:12:44;;;;;;;65.50;33.57;;;27.80;65.40;;;;;;5051351;28;20402;-74